• Join FlightAware (Why Join?)
  • Login
  • US Flag 
07:47PM EDT


 

Airport Tracker/Info


-or-


 

Live Flight TrackerFlight Track Log ✈ UAL4476 ✈ 29-Aug-2013 ✈ KBOS - KCLE

Flight Track Log - Related Links

Times and Time Zones

All times are in EDT time to prevent confusion due to time zone crossing. See the UAL4476 flight status page for this flight to view local times or setup timezone preferences in your user account.

Time Position Orientation Groundspeed Altitude Reporting Facility
EDT Latitude Longitude Course Direction KTS MPH feet Rate Location/Type
10:05AM 42.3667 -70.9667 304° West 169 194 700  Level KA90
10:05AM 42.3667 -70.9333 90° East 166 191 2,100 1,860 Climbing KA90
10:07AM 42.3833 -70.8500 75° East 221 254 4,100 1,860 Climbing KA90
10:07AM 42.4167 -70.7833 56° Northeast 249 287 5,900 2,040 Climbing KA90
10:09AM 42.6700 -71.0211 300° West  Level FlightAware Approximate
10:09AM 42.5000 -70.7833 360° North 260 299 8,200  Level KA90
10:09AM 42.5308 -70.8314 311° West 295 339 9,300 1,260 Climbing Boston Center
10:10AM 42.7210 -71.1420 304° West  Level FlightAware Approximate
10:10AM 42.5756 -70.9092 308° West 295 339 10,300  Level Boston Center
10:11AM 42.6375 -71.0206 307° West 321 369 11,500 1,140 Climbing Boston Center
10:12AM 42.6886 -71.1125 307° West 346 398 12,700 1,440 Climbing Boston Center
10:13AM 42.7525 -71.2269 307° West 351 404 14,400 1,440 Climbing Boston Center
10:14AM 42.7847 -71.3367 292° West 344 396 15,600 1,080 Climbing Boston Center
10:15AM 42.8008 -71.4864 278° West 352 405 16,600 1,020 Climbing Boston Center
10:16AM 42.8122 -71.6081 277° West 372 428 17,700 1,140 Climbing Boston Center
10:17AM 42.8278 -71.7578 278° West 372 428 18,900 1,140 Climbing Boston Center
10:18AM 42.8408 -71.8964 277° West 372 428 20,100 1,140 Climbing Boston Center
10:19AM 42.8539 -72.0322 278° West 372 428 21,200 960 Climbing Boston Center
10:20AM 42.8669 -72.1767 277° West 372 428 22,000 840 Climbing Boston Center
10:21AM 42.8858 -72.3042 281° West 377 434 22,900 1,020 Climbing Boston Center
10:22AM 42.9006 -72.4458 278° West 382 440 24,100 1,320 Climbing Boston Center
10:23AM 42.9089 -72.5817 275° West 377 434 25,600 1,860 Climbing Boston Center
10:24AM 42.9169 -72.7292 274° West 364 419 27,800 1,560 Climbing Boston Center
10:25AM 42.9289 -72.8542 277° West 353 406 28,700 720 Climbing Boston Center
10:26AM 42.9389 -72.9875 276° West 347 399 29,300 600 Climbing Boston Center
10:27AM 42.9506 -73.1264 277° West 360 414 30,000 960 Climbing Boston Center
10:28AM 42.9622 -73.2656 277° West 366 421 31,200 1,140 Climbing Boston Center
10:29AM 42.9675 -73.3878 273° West 366 421 32,300 1,080 Climbing Boston Center
10:30AM 42.9789 -73.5242 277° West 366 421 33,400 960 Climbing Boston Center
10:31AM 42.9900 -73.6633 276° West 366 421 34,300 900 Climbing Boston Center
10:32AM 43.0008 -73.7969 276° West 366 421 35,300 840 Climbing Boston Center
10:33AM 43.0117 -73.9336 276° West 366 421 36,000 300 Climbing Boston Center
10:34AM 43.0222 -74.0758 276° West 372 428 36,000  Level Boston Center
10:35AM 43.0325 -74.2239 275° West 380 437 36,000  Level Boston Center
10:36AM 43.0425 -74.3775 275° West 402 463 36,000  Level Boston Center
10:37AM 43.0544 -74.5342 276° West 412 474 36,000  Level Boston Center
10:38AM 43.0661 -74.6881 276° West 412 474 36,000  Level Boston Center
10:39AM 43.0750 -74.8533 274° West 412 474 36,000  Level Boston Center
10:40AM 43.0864 -75.0072 276° West 407 468 36,000  Level Boston Center
10:41AM 43.0953 -75.1614 275° West 407 468 36,000  Level Boston Center
10:42AM 43.1061 -75.3181 275° West 407 468 36,000  Level Boston Center
10:43AM 43.1147 -75.4694 275° West 407 468 36,000  Level Boston Center
10:44AM 43.1253 -75.6178 276° West 407 468 36,000  Level Boston Center
10:45AM 43.1356 -75.7692 275° West 401 461 36,000  Level Boston Center
10:46AM 43.1433 -75.9206 274° West 401 461 36,000  Level Boston Center
10:47AM 43.1533 -76.0692 275° West 407 468 36,000  Level Boston Center
10:49AM 43.1278 -76.3186 262° West 407 468 36,000  Level Cleveland Center
10:50AM 43.0769 -76.4672 245° Southwest 424 488 36,000  Level Cleveland Center
10:51AM 43.0319 -76.6150 247° West 424 488 36,000  Level Cleveland Center
10:52AM 42.9847 -76.7600 246° West 424 488 36,000  Level Cleveland Center
10:53AM 42.9375 -76.9075 246° West 424 488 36,000  Level Cleveland Center
10:54AM 42.8897 -77.0519 246° West 424 488 36,000  Level Cleveland Center
10:55AM 42.8294 -77.1914 240° Southwest 429 494 36,000  Level Cleveland Center
10:56AM 42.7708 -77.3333 241° Southwest 429 494 36,000  Level Cleveland Center
10:57AM 42.7122 -77.4692 240° Southwest 429 494 36,000  Level Cleveland Center
10:58AM 42.6492 -77.6164 240° Southwest 439 505 36,000  Level Cleveland Center
10:59AM 42.5883 -77.7572 240° Southwest 439 505 36,000  Level Cleveland Center
11:00AM 42.5308 -77.8867 239° Southwest 448 516 36,000  Level Cleveland Center
11:01AM 42.4733 -78.0186 239° Southwest 435 501 36,000  Level Cleveland Center
11:02AM 42.4158 -78.1533 240° Southwest 429 494 36,000  Level Cleveland Center
11:03AM 42.3583 -78.2903 240° Southwest 429 494 36,000 -480 Level Cleveland Center
11:04AM 42.2981 -78.4189 238° Southwest 429 494 35,100 -900 Descending Cleveland Center
11:05AM 42.2403 -78.5525 240° Southwest 418 481 34,200 -600 Descending Cleveland Center
11:06AM 42.1819 -78.6861 240° Southwest 418 481 34,000 -180 Descending Cleveland Center
11:07AM 42.1236 -78.8194 239° Southwest 413 475 33,900 -600 Descending Cleveland Center
11:08AM 42.0861 -78.9606 250° West 408 470 32,900 -1,080 Descending Cleveland Center
11:09AM 42.0506 -79.1094 252° West 413 475 31,800 -1,080 Descending Cleveland Center
11:10AM 42.0169 -79.2528 253° West 413 475 30,800 -1,200 Descending Cleveland Center
11:11AM 41.9769 -79.4072 251° West 407 468 29,500 -1,500 Descending Cleveland Center
11:12AM 41.9386 -79.5558 251° West 412 474 27,900 -1,500 Descending Cleveland Center
11:13AM 41.9044 -79.6931 252° West 418 481 26,600 -1,440 Descending Cleveland Center
11:14AM 41.8658 -79.8414 251° West 432 497 25,100 -1,560 Descending Cleveland Center
11:15AM 41.8250 -79.9925 250° West 427 491 23,500 -1,620 Descending Cleveland Center
11:16AM 41.7881 -80.1375 251° West 422 486 21,900 -1,560 Descending Cleveland Center
11:17AM 41.7492 -80.2825 250° West 417 480 20,400 -1,560 Descending Cleveland Center
11:18AM 41.7119 -80.4219 250° West 406 467 18,800 -1,620 Descending Cleveland Center
11:19AM 41.6744 -80.5719 252° West 401 461 17,200 -1,800 Descending Cleveland Center
11:20AM 41.6389 -80.7053 250° West 394 453 15,300 -1,980 Descending Cleveland Center
11:21AM 41.6075 -80.8247 251° West 388 447 13,500 -2,100 Descending Cleveland Center
11:21AM 41.5842 -80.9078 249° West 387 445 12,200 -2,040 Descending Cleveland Center
11:22AM 41.5694 -80.9689 252° West 388 447 11,300 -1,620 Descending Cleveland Center
11:22AM 41.5464 -81.0547 250° West 361 415 10,400 -900 Descending Cleveland Center
11:23AM 41.5167 -81.1600 249° West 362 417 10,000 -180 Descending Cleveland Center
11:24AM 41.4969 -81.3122 260° West 364 419 10,100  Climbing Cleveland Center
11:25AM 41.4794 -81.4311 259° West 358 412 10,100 -60 Level Cleveland Center
11:26AM 41.4617 -81.5583 259° West 354 407 10,000 -480 Descending Cleveland Center
11:27AM 41.4256 -81.6575 244° Southwest 283 326 9,200 -1,080 Descending Cleveland Center
11:28AM 41.3767 -81.7425 233° Southwest 287 330 7,900 -1,560 Descending Cleveland Center
11:29AM 41.3300 -81.8275 234° Southwest 282 325 6,100 -2,040 Descending Cleveland Center
11:30AM 41.2853 -81.9094 234° Southwest 277 319 3,800 -1,380 Descending Cleveland Center
11:32AM 41.2486 -82.0136 245° Southwest 254 292 3,100 -360 Descending Cleveland Center
11:33AM 41.3028 -82.0175 357° North 248 285 3,100 -300 Level Cleveland Center
11:34AM 41.3472 -81.9606 44° Northeast 205 236 2,600 -720 Descending Cleveland Center
11:35AM 41.3747 -81.9114 53° Northeast 147 169 1,600 -900 Descending Cleveland Center